Terminal Aerodrome Forecast
Issued by NWS North Platte, NE

Home | Current Version | Previous Version | Text Only | Print | Product List | Glossary On
Versions: 1 2 3 4 5 6 7 8 9 10 11 12 13
863
FTUS43 KLBF 211230 AAA
TAFVTN
TAF AMD
KVTN 211230Z 2113/2212 VRB03KT P6SM FEW040 SCT110 BKN200
     FM211400 27006KT P6SM SCT025 BKN250
     FM211600 29008KT P6SM SCT250
     FM212100 32012KT P6SM SCT250
     FM220000 32010KT P6SM FEW250=

USA.gov is the U.S. government's official web portal to all federal, state and local government web resources and services.